createdAt,value
2023-09-24T00:00:06.832Z,100.00
2023-09-24T00:02:33.732Z,100.00
2023-09-24T00:05:00.390Z,100.00
2023-09-24T00:07:27.232Z,100.00
2023-09-24T00:09:53.839Z,100.00
2023-09-24T00:12:20.380Z,100.00
2023-09-24T00:14:47.129Z,100.00
2023-09-24T00:17:13.880Z,100.00
2023-09-24T00:19:40.429Z,100.00
2023-09-24T00:22:07.030Z,100.00
2023-09-24T00:24:33.705Z,100.00
2023-09-24T00:27:00.531Z,100.00
2023-09-24T00:29:27.177Z,100.00
2023-09-24T00:31:53.960Z,100.00
2023-09-24T00:34:20.544Z,100.00
2023-09-24T00:36:47.160Z,100.00
2023-09-24T00:39:13.750Z,100.00
2023-09-24T00:41:40.394Z,100.00
2023-09-24T00:44:07.458Z,100.00
2023-09-24T00:46:34.392Z,100.00
2023-09-24T00:49:01.037Z,100.00
2023-09-24T00:51:27.755Z,100.00
2023-09-24T00:53:54.802Z,100.00
2023-09-24T00:56:22.406Z,100.00
2023-09-24T00:58:49.642Z,100.00
2023-09-24T01:01:16.277Z,100.00
2023-09-24T01:03:43.467Z,100.00
2023-09-24T01:06:10.338Z,100.00
2023-09-24T01:08:37.006Z,100.00
2023-09-24T01:11:03.646Z,100.00
2023-09-24T01:13:40.878Z,100.00
2023-09-24T01:16:08.000Z,100.00
2023-09-24T01:18:34.978Z,100.00
2023-09-24T01:21:02.190Z,100.00
2023-09-24T01:23:28.920Z,100.00
2023-09-24T01:25:55.565Z,100.00
2023-09-24T01:28:22.155Z,100.00
2023-09-24T01:30:48.740Z,100.00
2023-09-24T01:33:15.386Z,100.00
2023-09-24T01:35:42.101Z,100.00
2023-09-24T01:38:08.712Z,100.00
2023-09-24T01:40:35.445Z,100.00
2023-09-24T01:43:02.260Z,100.00
2023-09-24T01:45:28.866Z,100.00
2023-09-24T01:47:58.314Z,100.00
2023-09-24T01:50:24.983Z,100.00
2023-09-24T01:52:51.577Z,100.00
2023-09-24T01:55:18.174Z,100.00
2023-09-24T01:57:45.003Z,100.00
2023-09-24T02:00:12.645Z,100.00
2023-09-24T02:02:39.766Z,100.00
2023-09-24T02:05:07.034Z,100.00
2023-09-24T02:07:33.685Z,100.00
2023-09-24T02:10:00.362Z,100.00
2023-09-24T02:12:27.136Z,100.00
2023-09-24T02:14:53.835Z,100.00
2023-09-24T02:17:20.532Z,100.00
2023-09-24T02:19:47.133Z,100.00
2023-09-24T02:22:13.788Z,100.00
2023-09-24T02:24:40.414Z,100.00
2023-09-24T02:27:07.080Z,100.00
2023-09-24T02:29:33.687Z,100.00
2023-09-24T02:32:00.313Z,100.00
2023-09-24T02:34:26.940Z,100.00
2023-09-24T02:36:53.538Z,100.00
2023-09-24T02:39:20.081Z,100.00
2023-09-24T02:41:46.841Z,100.00
2023-09-24T02:44:13.477Z,100.00
2023-09-24T02:46:40.067Z,100.00
2023-09-24T02:49:06.931Z,100.00
2023-09-24T02:51:33.470Z,100.00
2023-09-24T02:54:00.160Z,100.00
2023-09-24T02:56:26.802Z,100.00
2023-09-24T02:58:53.372Z,100.00
2023-09-24T03:01:20.344Z,100.00
2023-09-24T03:03:47.152Z,100.00
2023-09-24T03:06:14.402Z,100.00
2023-09-24T03:08:40.949Z,100.00
2023-09-24T03:11:13.927Z,100.00
2023-09-24T03:13:40.672Z,100.00
2023-09-24T03:16:07.288Z,100.00
2023-09-24T03:18:34.250Z,100.00
2023-09-24T03:21:00.991Z,100.00
2023-09-24T03:23:27.815Z,100.00
2023-09-24T03:25:54.409Z,100.00
2023-09-24T03:28:20.970Z,100.00
2023-09-24T03:30:47.531Z,100.00
2023-09-24T03:33:14.606Z,100.00
2023-09-24T03:35:41.307Z,100.00
2023-09-24T03:38:07.909Z,100.00
2023-09-24T03:40:34.538Z,100.00
2023-09-24T03:43:01.237Z,100.00
2023-09-24T03:45:27.904Z,100.00
2023-09-24T03:47:54.641Z,100.00
2023-09-24T03:50:21.340Z,100.00
2023-09-24T03:52:49.136Z,100.00
2023-09-24T03:55:15.887Z,100.00
2023-09-24T03:57:42.516Z,100.00
2023-09-24T04:00:09.519Z,100.00
2023-09-24T04:02:36.416Z,100.00
2023-09-24T04:05:03.280Z,100.00
2023-09-24T04:07:29.859Z,100.00
2023-09-24T04:09:56.430Z,100.00
2023-09-24T04:12:23.002Z,100.00
2023-09-24T04:14:53.243Z,100.00
2023-09-24T04:17:19.971Z,100.00
2023-09-24T04:19:46.517Z,100.00
2023-09-24T04:22:13.077Z,100.00
2023-09-24T04:24:39.678Z,100.00
2023-09-24T04:27:06.552Z,100.00
2023-09-24T04:29:33.200Z,100.00
2023-09-24T04:31:59.945Z,100.00
2023-09-24T04:34:26.507Z,100.00
2023-09-24T04:36:53.076Z,100.00
2023-09-24T04:39:19.699Z,100.00
2023-09-24T04:41:46.352Z,100.00
2023-09-24T04:44:15.709Z,100.00
2023-09-24T04:46:42.481Z,100.00
2023-09-24T04:49:09.458Z,100.00
2023-09-24T04:51:36.321Z,100.00
2023-09-24T04:54:03.093Z,100.00
2023-09-24T04:56:29.784Z,100.00
2023-09-24T04:58:56.482Z,100.00
2023-09-24T05:01:23.114Z,100.00
2023-09-24T05:03:50.889Z,100.00
2023-09-24T05:06:18.571Z,100.00
2023-09-24T05:08:45.717Z,100.00
2023-09-24T05:11:13.188Z,100.00
2023-09-24T05:13:39.987Z,100.00
2023-09-24T05:16:06.669Z,100.00
2023-09-24T05:18:33.721Z,100.00
2023-09-24T05:21:00.442Z,100.00
2023-09-24T05:23:27.032Z,100.00
2023-09-24T05:25:53.664Z,100.00
2023-09-24T05:28:20.368Z,100.00
2023-09-24T05:30:53.838Z,100.00
2023-09-24T05:33:20.865Z,100.00
2023-09-24T05:35:51.896Z,100.00
2023-09-24T05:38:18.559Z,100.00
2023-09-24T05:40:45.195Z,100.00
2023-09-24T05:43:11.826Z,100.00
2023-09-24T05:45:48.294Z,100.00
2023-09-24T05:48:15.324Z,100.00
2023-09-24T05:50:42.643Z,100.00
2023-09-24T05:53:12.736Z,100.00
2023-09-24T05:55:39.383Z,100.00
2023-09-24T05:58:09.215Z,100.00
2023-09-24T06:00:36.771Z,100.00
2023-09-24T06:03:03.518Z,100.00
2023-09-24T06:05:30.217Z,100.00
2023-09-24T06:07:57.183Z,100.00
2023-09-24T06:10:23.781Z,100.00
2023-09-24T06:12:50.609Z,100.00
2023-09-24T06:15:17.249Z,100.00
2023-09-24T06:17:44.162Z,100.00
2023-09-24T06:20:11.464Z,100.00
2023-09-24T06:22:41.118Z,100.00
2023-09-24T06:25:07.982Z,100.00
2023-09-24T06:27:34.627Z,100.00
2023-09-24T06:30:01.552Z,100.00
2023-09-24T06:32:28.652Z,100.00
2023-09-24T06:34:55.265Z,100.00
2023-09-24T06:37:21.967Z,100.00
2023-09-24T06:39:48.812Z,100.00
2023-09-24T06:42:15.448Z,100.00
2023-09-24T06:44:42.123Z,100.00
2023-09-24T06:47:08.751Z,100.00
2023-09-24T06:49:35.406Z,100.00
2023-09-24T06:52:05.630Z,100.00
2023-09-24T06:54:35.491Z,100.00
2023-09-24T06:57:02.174Z,100.00
2023-09-24T06:59:28.930Z,100.00
2023-09-24T07:01:55.591Z,100.00
2023-09-24T07:04:22.642Z,100.00
2023-09-24T07:06:51.282Z,100.00
2023-09-24T07:09:18.034Z,100.00
2023-09-24T07:11:44.729Z,100.00
2023-09-24T07:14:11.418Z,100.00
2023-09-24T07:16:38.366Z,100.00
2023-09-24T07:19:05.044Z,100.00
2023-09-24T07:21:35.933Z,100.00
2023-09-24T07:24:04.341Z,100.00
2023-09-24T07:26:31.326Z,100.00
2023-09-24T07:28:58.412Z,100.00
2023-09-24T07:31:28.902Z,100.00
2023-09-24T07:33:58.151Z,100.00
2023-09-24T07:38:54.576Z,100.00
2023-09-24T07:41:21.220Z,100.00
2023-09-24T07:43:47.976Z,89.19
2023-09-24T07:46:14.955Z,81.36
2023-09-24T07:48:43.536Z,79.10
2023-09-24T07:51:10.263Z,76.04
2023-09-24T07:53:37.015Z,71.22
2023-09-24T07:56:04.467Z,70.72
2023-09-24T07:58:31.107Z,69.75
2023-09-24T08:01:11.362Z,66.96
2023-09-24T08:03:38.949Z,67.30
2023-09-24T08:06:06.513Z,66.89
2023-09-24T08:08:49.831Z,64.59
2023-09-24T08:11:18.554Z,65.50
2023-09-24T08:13:45.502Z,64.13
2023-09-24T08:16:12.432Z,62.77
2023-09-24T08:18:39.289Z,61.95
2023-09-24T08:21:06.442Z,59.82
2023-09-24T08:23:33.101Z,58.47
2023-09-24T08:25:59.812Z,56.90
2023-09-24T08:28:26.424Z,56.35
2023-09-24T08:30:52.950Z,55.45
2023-09-24T08:33:19.961Z,55.22
2023-09-24T08:35:46.675Z,53.51
2023-09-24T08:38:14.617Z,54.34
2023-09-24T08:40:41.627Z,55.73
2023-09-24T08:43:11.641Z,55.44
2023-09-24T08:45:38.624Z,54.02
2023-09-24T08:48:08.672Z,53.97
2023-09-24T08:50:40.797Z,53.49
2023-09-24T08:53:12.935Z,52.95
2023-09-24T08:55:42.698Z,53.42
2023-09-24T08:58:09.533Z,51.80
2023-09-24T09:00:36.150Z,51.88
2023-09-24T09:03:03.085Z,51.31
2023-09-24T09:05:30.093Z,48.54
2023-09-24T09:07:57.474Z,50.66
2023-09-24T09:10:24.895Z,48.30
2023-09-24T09:12:51.835Z,49.48
2023-09-24T09:15:18.390Z,48.39
2023-09-24T09:17:45.155Z,48.64
2023-09-24T09:20:11.823Z,49.65
2023-09-24T09:22:38.802Z,50.31
2023-09-24T09:25:05.586Z,47.24
2023-09-24T09:27:37.916Z,46.85
2023-09-24T09:30:11.821Z,47.98
2023-09-24T09:32:38.528Z,47.80
2023-09-24T09:35:06.247Z,48.43
2023-09-24T09:37:34.625Z,46.79
2023-09-24T09:40:01.913Z,48.12
2023-09-24T09:42:31.586Z,46.71
2023-09-24T09:45:00.959Z,45.97
2023-09-24T09:47:27.772Z,46.17
2023-09-24T09:49:57.845Z,45.39
2023-09-24T09:52:26.100Z,47.01
2023-09-24T09:54:55.718Z,46.09
2023-09-24T09:57:23.965Z,46.03
2023-09-24T09:59:50.629Z,46.56
2023-09-24T10:02:17.519Z,44.81
2023-09-24T10:04:46.953Z,47.09
2023-09-24T10:07:13.547Z,46.15
2023-09-24T10:09:43.141Z,48.93
2023-09-24T10:12:12.092Z,47.79
2023-09-24T10:14:39.613Z,46.13
2023-09-24T10:17:18.519Z,46.45
2023-09-24T10:19:59.551Z,44.97
2023-09-24T10:22:36.120Z,43.40
2023-09-24T10:25:26.123Z,44.87
2023-09-24T10:28:09.489Z,45.61
2023-09-24T10:31:02.938Z,46.49
2023-09-24T10:34:00.557Z,48.79
2023-09-24T10:36:31.539Z,48.76
2023-09-24T10:39:11.029Z,47.86
2023-09-24T10:41:37.773Z,46.33
2023-09-24T10:44:26.596Z,49.04
2023-09-24T10:46:57.652Z,49.75
2023-09-24T10:49:26.936Z,50.95
2023-09-24T10:51:59.712Z,49.37
2023-09-24T10:54:26.616Z,51.13
2023-09-24T10:56:53.450Z,50.51
2023-09-24T10:59:34.606Z,50.61
2023-09-24T11:02:20.876Z,50.13
2023-09-24T11:04:48.199Z,51.47
2023-09-24T11:07:14.810Z,51.31
2023-09-24T11:09:49.552Z,51.53
2023-09-24T11:12:16.225Z,52.80
2023-09-24T11:14:42.909Z,50.13
2023-09-24T11:17:09.528Z,49.90
2023-09-24T11:19:48.831Z,51.48
2023-09-24T11:22:22.081Z,50.64
2023-09-24T11:25:11.699Z,51.08
2023-09-24T11:27:54.531Z,48.93
2023-09-24T11:30:25.963Z,49.91
2023-09-24T11:32:52.812Z,47.28
2023-09-24T11:35:20.776Z,46.90
2023-09-24T11:37:47.455Z,49.67
2023-09-24T11:40:30.571Z,47.17
2023-09-24T11:43:04.008Z,47.68
2023-09-24T11:45:46.212Z,48.96
2023-09-24T11:48:19.760Z,49.78
2023-09-24T11:50:48.302Z,52.33
2023-09-24T11:53:15.612Z,47.29
2023-09-24T11:55:42.242Z,49.30
2023-09-24T11:58:08.914Z,51.71
2023-09-24T12:00:35.976Z,52.30
2023-09-24T12:03:02.778Z,51.20
2023-09-24T12:05:33.775Z,49.46
2023-09-24T12:08:01.981Z,49.56
2023-09-24T12:10:28.699Z,49.47
2023-09-24T12:12:55.377Z,49.28
2023-09-24T12:15:21.996Z,48.60
2023-09-24T12:17:48.766Z,50.52
2023-09-24T12:20:15.402Z,48.78
2023-09-24T12:22:42.832Z,47.58
2023-09-24T12:25:10.649Z,49.50
2023-09-24T12:27:37.244Z,45.31
2023-09-24T12:30:05.235Z,47.42
2023-09-24T12:32:32.872Z,52.50
2023-09-24T12:34:59.589Z,51.13
2023-09-24T12:37:26.544Z,50.16
2023-09-24T12:39:53.243Z,51.71
2023-09-24T12:42:19.850Z,46.29
2023-09-24T12:44:46.525Z,47.90
2023-09-24T12:47:13.285Z,49.46
2023-09-24T12:49:39.913Z,48.12
2023-09-24T12:52:06.524Z,50.45
2023-09-24T12:54:33.203Z,49.41
2023-09-24T12:56:59.863Z,50.20
2023-09-24T12:59:26.544Z,49.97
2023-09-24T13:01:53.268Z,49.23
2023-09-24T13:04:21.935Z,50.36
2023-09-24T13:06:50.431Z,52.25
2023-09-24T13:09:17.039Z,52.03
2023-09-24T13:11:45.357Z,50.52
2023-09-24T13:14:12.895Z,49.84
2023-09-24T13:16:40.360Z,51.28
2023-09-24T13:19:06.983Z,50.30
2023-09-24T13:21:33.768Z,49.41
2023-09-24T13:24:00.556Z,49.94
2023-09-24T13:26:27.165Z,51.78
2023-09-24T13:28:53.740Z,50.68
2023-09-24T13:31:20.328Z,51.51
2023-09-24T13:33:47.294Z,51.93
2023-09-24T13:36:14.108Z,51.84
2023-09-24T13:38:40.718Z,51.30
2023-09-24T13:41:07.443Z,50.64
2023-09-24T13:43:34.051Z,50.37
2023-09-24T13:46:00.720Z,51.44
2023-09-24T13:48:27.472Z,50.27
2023-09-24T13:50:54.392Z,51.39
2023-09-24T13:53:21.064Z,52.14
2023-09-24T13:55:48.963Z,48.22
2023-09-24T13:58:15.831Z,51.32
2023-09-24T14:00:45.930Z,51.05
2023-09-24T14:03:12.786Z,48.86
2023-09-24T14:05:39.834Z,50.39
2023-09-24T14:08:06.568Z,50.41
2023-09-24T14:10:33.160Z,51.29
2023-09-24T14:12:59.677Z,51.15
2023-09-24T14:15:26.310Z,51.98
2023-09-24T14:18:07.104Z,52.03
2023-09-24T14:20:39.566Z,53.25
2023-09-24T14:23:06.156Z,51.68
2023-09-24T14:25:38.138Z,51.93
2023-09-24T14:28:05.060Z,52.84
2023-09-24T14:30:31.718Z,51.55
2023-09-24T14:32:58.417Z,52.43
2023-09-24T14:35:25.405Z,52.42
2023-09-24T14:37:52.018Z,52.82
2023-09-24T14:40:18.605Z,52.29
2023-09-24T14:42:45.189Z,51.91
2023-09-24T14:45:12.492Z,53.42
2023-09-24T14:47:39.113Z,48.65
2023-09-24T14:50:06.399Z,50.60
2023-09-24T14:52:33.149Z,50.87
2023-09-24T14:54:59.773Z,51.04
2023-09-24T14:57:26.462Z,52.45
2023-09-24T14:59:53.119Z,53.08
2023-09-24T15:02:19.882Z,52.95
2023-09-24T15:04:46.576Z,52.88
2023-09-24T15:07:13.201Z,54.33
2023-09-24T15:09:39.761Z,53.88
2023-09-24T15:12:06.692Z,50.19
2023-09-24T15:14:33.352Z,49.31
2023-09-24T15:16:59.994Z,54.38
2023-09-24T15:19:26.606Z,54.13
2023-09-24T15:21:53.209Z,57.71
2023-09-24T15:24:19.879Z,56.71
2023-09-24T15:26:46.561Z,56.81
2023-09-24T15:29:13.185Z,56.78
2023-09-24T15:31:39.810Z,55.88
2023-09-24T15:34:06.518Z,55.43
2023-09-24T15:36:33.217Z,58.08
2023-09-24T15:38:59.865Z,54.82
2023-09-24T15:41:29.975Z,58.13
2023-09-24T15:43:56.596Z,55.79
2023-09-24T15:46:23.399Z,58.18
2023-09-24T15:48:50.044Z,54.16
2023-09-24T15:51:19.541Z,56.71
2023-09-24T15:53:47.122Z,58.39
2023-09-24T15:56:14.070Z,57.75
2023-09-24T15:58:40.992Z,60.09
2023-09-24T16:01:07.852Z,58.79
2023-09-24T16:03:34.485Z,62.87
2023-09-24T16:06:01.155Z,59.08
2023-09-24T16:08:28.121Z,61.64
2023-09-24T16:10:54.753Z,60.49
2023-09-24T16:13:21.348Z,59.68
2023-09-24T16:15:48.060Z,63.80
2023-09-24T16:18:14.711Z,63.55
2023-09-24T16:20:41.395Z,68.85
2023-09-24T16:23:07.977Z,69.35
2023-09-24T16:25:34.688Z,64.58
2023-09-24T16:28:01.658Z,69.29
2023-09-24T16:30:28.516Z,71.25
2023-09-24T16:32:55.473Z,72.42
2023-09-24T16:35:22.652Z,74.99
2023-09-24T16:37:49.583Z,75.65
2023-09-24T16:40:16.479Z,77.46
2023-09-24T16:42:43.314Z,75.47
2023-09-24T16:45:10.330Z,76.53
2023-09-24T16:47:37.414Z,78.67
2023-09-24T16:50:04.469Z,81.69
2023-09-24T16:52:31.178Z,83.23
2023-09-24T16:54:57.980Z,83.01
2023-09-24T16:57:24.818Z,84.09
2023-09-24T16:59:52.996Z,86.26
2023-09-24T17:02:19.866Z,86.96
2023-09-24T17:04:46.613Z,86.83
2023-09-24T17:07:13.302Z,87.79
2023-09-24T17:09:40.172Z,88.61
2023-09-24T17:12:07.138Z,89.72
2023-09-24T17:14:33.922Z,90.18
2023-09-24T17:17:00.674Z,91.14
2023-09-24T17:19:27.600Z,93.23
2023-09-24T17:21:54.368Z,93.59
2023-09-24T17:24:21.409Z,92.57
2023-09-24T17:26:48.323Z,92.74
2023-09-24T17:29:15.246Z,93.04
2023-09-24T17:31:41.880Z,94.36
2023-09-24T17:34:08.840Z,94.76
2023-09-24T17:36:35.590Z,95.75
2023-09-24T17:39:02.438Z,96.31
2023-09-24T17:41:29.359Z,97.12
2023-09-24T17:43:56.285Z,97.54
2023-09-24T17:46:23.103Z,97.91
2023-09-24T17:48:49.726Z,97.77
2023-09-24T17:51:16.706Z,98.38
2023-09-24T17:53:43.574Z,97.79
2023-09-24T17:56:10.221Z,97.96
2023-09-24T17:58:39.263Z,98.82
2023-09-24T18:01:13.108Z,98.47
2023-09-24T18:03:53.511Z,97.70
2023-09-24T18:06:22.195Z,98.49
2023-09-24T18:08:56.470Z,98.79
2023-09-24T18:11:23.108Z,100.00
2023-09-24T18:13:49.856Z,100.00
2023-09-24T18:16:19.424Z,100.00
2023-09-24T18:18:46.093Z,100.00
2023-09-24T18:21:29.554Z,100.00
2023-09-24T18:23:57.204Z,100.00
2023-09-24T18:26:29.364Z,100.00
2023-09-24T18:28:59.149Z,100.00
2023-09-24T18:31:34.282Z,100.00
2023-09-24T18:34:03.533Z,100.00
2023-09-24T18:36:33.862Z,100.00
2023-09-24T18:39:00.623Z,100.00
2023-09-24T18:41:27.341Z,100.00
2023-09-24T18:43:59.986Z,100.00
2023-09-24T18:46:28.992Z,100.00
2023-09-24T18:48:57.770Z,100.00
2023-09-24T18:51:27.166Z,100.00
2023-09-24T18:53:56.881Z,100.00
2023-09-24T18:56:23.908Z,100.00
2023-09-24T18:58:53.518Z,100.00
2023-09-24T19:01:20.468Z,100.00
2023-09-24T19:03:49.820Z,100.00
2023-09-24T19:06:19.955Z,100.00
2023-09-24T19:08:46.778Z,100.00
2023-09-24T19:11:13.491Z,100.00
2023-09-24T19:13:45.833Z,100.00
2023-09-24T19:16:12.570Z,100.00
2023-09-24T19:18:39.294Z,100.00
2023-09-24T19:21:09.028Z,100.00
2023-09-24T19:23:35.777Z,100.00
2023-09-24T19:26:24.273Z,100.00
2023-09-24T19:28:50.969Z,100.00
2023-09-24T19:31:17.711Z,100.00
2023-09-24T19:33:44.754Z,100.00
2023-09-24T19:36:11.496Z,100.00
2023-09-24T19:38:38.091Z,100.00
2023-09-24T19:41:05.268Z,100.00
2023-09-24T19:43:31.950Z,100.00
2023-09-24T19:45:58.680Z,100.00
2023-09-24T19:48:25.899Z,100.00
2023-09-24T19:50:53.445Z,100.00
2023-09-24T19:53:20.958Z,100.00
2023-09-24T19:55:51.377Z,100.00
2023-09-24T19:58:18.031Z,100.00
2023-09-24T20:00:45.054Z,100.00
2023-09-24T20:03:11.769Z,100.00
2023-09-24T20:05:41.850Z,100.00
2023-09-24T20:08:09.339Z,100.00
2023-09-24T20:10:36.478Z,100.00
2023-09-24T20:13:03.195Z,100.00
2023-09-24T20:15:29.823Z,100.00
2023-09-24T20:17:56.738Z,100.00
2023-09-24T20:20:24.484Z,100.00
2023-09-24T20:22:51.325Z,100.00
2023-09-24T20:25:27.579Z,100.00
2023-09-24T20:27:55.243Z,100.00
2023-09-24T20:30:22.707Z,100.00
2023-09-24T20:32:52.415Z,100.00
2023-09-24T20:35:19.502Z,100.00
2023-09-24T20:37:46.100Z,100.00
2023-09-24T20:40:12.728Z,100.00
2023-09-24T20:42:39.345Z,100.00
2023-09-24T20:45:06.512Z,100.00
2023-09-24T20:47:33.283Z,100.00
2023-09-24T20:49:59.935Z,100.00
2023-09-24T20:52:26.584Z,100.00
2023-09-24T20:54:53.287Z,100.00
2023-09-24T20:57:19.958Z,100.00
2023-09-24T20:59:53.185Z,100.00
2023-09-24T21:02:20.026Z,100.00
2023-09-24T21:04:46.635Z,100.00
2023-09-24T21:07:13.637Z,100.00
2023-09-24T21:09:40.362Z,100.00
2023-09-24T21:12:07.103Z,100.00
2023-09-24T21:14:33.730Z,100.00
2023-09-24T21:17:00.313Z,100.00
2023-09-24T21:19:26.959Z,100.00
2023-09-24T21:21:53.573Z,100.00
2023-09-24T21:24:20.250Z,100.00
2023-09-24T21:26:46.833Z,100.00
2023-09-24T21:29:13.790Z,100.00
2023-09-24T21:31:40.336Z,100.00
2023-09-24T21:34:07.037Z,100.00
2023-09-24T21:36:33.806Z,100.00
2023-09-24T21:39:00.771Z,100.00
2023-09-24T21:41:27.384Z,100.00
2023-09-24T21:43:53.955Z,100.00
2023-09-24T21:46:20.606Z,100.00
2023-09-24T21:48:47.642Z,100.00
2023-09-24T21:51:14.435Z,100.00
2023-09-24T21:53:41.031Z,100.00
2023-09-24T21:56:07.602Z,100.00
2023-09-24T21:58:34.182Z,100.00
2023-09-24T22:01:00.781Z,100.00
2023-09-24T22:03:27.448Z,100.00
2023-09-24T22:05:54.230Z,100.00
2023-09-24T22:08:21.067Z,100.00
2023-09-24T22:10:47.686Z,100.00
2023-09-24T22:13:14.295Z,100.00
2023-09-24T22:15:41.013Z,100.00
2023-09-24T22:18:08.102Z,100.00
2023-09-24T22:20:34.864Z,100.00
2023-09-24T22:23:01.460Z,100.00
2023-09-24T22:25:28.074Z,100.00
2023-09-24T22:27:54.704Z,100.00
2023-09-24T22:30:21.587Z,100.00
2023-09-24T22:32:48.230Z,100.00
2023-09-24T22:35:14.926Z,100.00
2023-09-24T22:37:42.166Z,100.00
2023-09-24T22:40:09.472Z,100.00
2023-09-24T22:42:36.089Z,100.00
2023-09-24T22:45:04.610Z,100.00
2023-09-24T22:47:31.494Z,100.00
2023-09-24T22:49:58.798Z,100.00
2023-09-24T22:52:25.624Z,100.00
2023-09-24T22:54:52.216Z,100.00
2023-09-24T22:57:19.005Z,100.00
2023-09-24T22:59:45.659Z,100.00
2023-09-24T23:02:12.229Z,100.00
2023-09-24T23:04:38.821Z,100.00
2023-09-24T23:07:05.498Z,100.00
2023-09-24T23:09:32.240Z,100.00
2023-09-24T23:11:59.073Z,100.00
2023-09-24T23:14:25.698Z,100.00
2023-09-24T23:16:52.397Z,100.00
2023-09-24T23:19:19.302Z,100.00
2023-09-24T23:21:45.950Z,100.00
2023-09-24T23:24:12.555Z,100.00
2023-09-24T23:26:42.226Z,100.00
2023-09-24T23:29:08.863Z,100.00
2023-09-24T23:31:38.559Z,100.00
2023-09-24T23:34:06.619Z,100.00
2023-09-24T23:36:35.136Z,100.00
2023-09-24T23:39:01.720Z,100.00
2023-09-24T23:41:28.535Z,100.00
2023-09-24T23:43:55.109Z,100.00
2023-09-24T23:46:21.719Z,100.00
2023-09-24T23:48:48.609Z,100.00
2023-09-24T23:51:15.423Z,100.00
2023-09-24T23:53:42.081Z,100.00
2023-09-24T23:56:08.724Z,100.00
2023-09-24T23:58:35.352Z,100.00
